Time;durP1;ratioP1;P1;durP2;ratioP2;P2;SDS_P1;SDS_P2;PMS_P1;PMS_P2;Temp;Humidity;BMP_temperature;BMP_pressure;BME280_temperature;BME280_humidity;BME280_pressure;Samples;Min_cycle;Max_cycle;Signal;HPM_P1;HPM_P2
2022/12/23 00:00:10;;;;;;;3.00;0.60;;;9.90;99.90;;;;;;5060009;28;20518;-77
2022/12/23 00:02:36;;;;;;;0.90;0.40;;;10.00;99.90;;;;;;5075926;28;20190;-78
2022/12/23 00:05:02;;;;;;;2.50;0.70;;;10.00;99.90;;;;;;5077254;28;20418;-78
2022/12/23 00:07:28;;;;;;;4.30;0.50;;;10.00;99.90;;;;;;5057075;28;20433;-78
2022/12/23 00:09:54;;;;;;;2.10;0.50;;;10.20;99.90;;;;;;5073636;28;20441;-77
2022/12/23 00:15:05;;;;;;;1.23;0.43;;;10.10;99.90;;;;;;5075611;28;20202;-79
2022/12/23 00:17:40;;;;;;;2.07;0.63;;;10.10;99.90;;;;;;5058838;28;20610;-78
2022/12/23 00:20:08;;;;;;;0.90;0.50;;;10.20;99.90;;;;;;5076311;28;20486;-78
2022/12/23 00:25:19;;;;;;;1.17;0.50;;;10.00;99.90;;;;;;5075245;28;20567;-78
2022/12/23 00:28:00;;;;;;;0.63;0.40;;;10.20;99.90;;;;;;5074205;28;20473;-78
2022/12/23 00:30:27;;;;;;;0.80;0.50;;;10.20;99.90;;;;;;5053525;28;20182;-78
2022/12/23 00:32:52;;;;;;;0.70;0.40;;;10.20;99.90;;;;;;5053480;28;20458;-78
2022/12/23 00:35:18;;;;;;;4.40;0.50;;;10.20;99.90;;;;;;5053617;28;20430;-77
2022/12/23 00:37:44;;;;;;;0.60;0.40;;;10.20;99.90;;;;;;5071491;28;20214;-78
2022/12/23 00:42:57;;;;;;;2.30;0.60;;;10.40;99.90;;;;;;5071582;28;20579;-77
2022/12/23 00:45:22;;;;;;;1.20;0.40;;;10.50;99.90;;;;;;5036905;28;20950;-76
2022/12/23 00:50:35;;;;;;;1.10;0.40;;;10.60;99.90;;;;;;5057981;28;20224;-78
2022/12/23 00:53:00;;;;;;;0.60;0.40;;;10.70;99.90;;;;;;5072716;28;20446;-79
2022/12/23 00:55:26;;;;;;;0.60;0.30;;;10.80;99.90;;;;;;5070528;28;20430;-78
2022/12/23 00:57:52;;;;;;;0.90;0.40;;;10.80;99.90;;;;;;5054528;28;20219;-77
2022/12/23 01:00:18;;;;;;;0.70;0.40;;;10.80;99.90;;;;;;5071224;28;20184;-77
2022/12/23 01:05:36;;;;;;;0.70;0.40;;;10.90;99.90;;;;;;5056589;28;20443;-77
2022/12/23 01:08:04;;;;;;;0.70;0.40;;;10.90;99.90;;;;;;5071111;28;20518;-77
2022/12/23 01:10:29;;;;;;;1.00;0.33;;;11.00;99.90;;;;;;5071395;28;20432;-77
2022/12/23 01:12:55;;;;;;;0.70;0.40;;;11.00;99.90;;;;;;5052425;28;20449;-77
2022/12/23 01:15:20;;;;;;;0.70;0.40;;;11.10;99.90;;;;;;5070424;28;20188;-77
2022/12/23 01:17:46;;;;;;;0.80;0.40;;;11.10;99.90;;;;;;5052665;28;20285;-77
2022/12/23 01:20:12;;;;;;;0.60;0.40;;;11.10;99.90;;;;;;5070806;28;20184;-77
2022/12/23 01:22:37;;;;;;;0.80;0.40;;;11.10;99.90;;;;;;5052928;28;20300;-77
2022/12/23 01:25:03;;;;;;;0.70;0.40;;;11.10;99.90;;;;;;5052222;28;20646;-76
2022/12/23 01:27:29;;;;;;;0.70;0.40;;;11.10;99.90;;;;;;5070299;28;20654;-77
2022/12/23 01:29:55;;;;;;;1.90;0.40;;;11.30;99.90;;;;;;5071120;28;20428;-77
2022/12/23 01:32:20;;;;;;;0.60;0.30;;;11.20;99.90;;;;;;5053361;28;20203;-77
2022/12/23 01:34:46;;;;;;;1.10;0.40;;;11.10;99.90;;;;;;5070747;28;20220;-77
2022/12/23 01:37:12;;;;;;;0.70;0.30;;;11.10;99.90;;;;;;5052763;28;20249;-77
2022/12/23 01:39:38;;;;;;;0.70;0.40;;;11.10;99.90;;;;;;5052277;28;20450;-77
2022/12/23 01:44:56;;;;;;;0.70;0.40;;;11.10;99.90;;;;;;5055169;28;20572;-77
2022/12/23 01:47:35;;;;;;;0.60;0.33;;;11.20;99.90;;;;;;5051185;28;20437;-77
2022/12/23 01:50:04;;;;;;;1.10;0.50;;;11.20;99.90;;;;;;5070895;28;20448;-77
2022/12/23 01:52:34;;;;;;;0.70;0.50;;;11.20;99.90;;;;;;5070092;28;20437;-77
2022/12/23 01:55:00;;;;;;;0.70;0.40;;;11.30;99.90;;;;;;5070680;28;20433;-77
2022/12/23 01:57:26;;;;;;;0.60;0.40;;;11.30;99.90;;;;;;5053053;28;20464;-77
2022/12/23 02:05:24;;;;;;;0.90;0.40;;;11.40;99.90;;;;;;5056194;28;20467;-77
2022/12/23 02:10:50;;;;;;;0.87;0.40;;;11.30;99.90;;;;;;5040872;28;20207;-77
2022/12/23 02:13:35;;;;;;;0.63;0.40;;;11.30;99.90;;;;;;5070862;28;20464;-77
2022/12/23 02:16:17;;;;;;;0.97;0.40;;;11.40;99.90;;;;;;5070463;28;20496;-76
2022/12/23 02:19:13;;;;;;;0.73;0.30;;;11.30;99.90;;;;;;5070291;28;20464;-77
2022/12/23 02:21:42;;;;;;;4.30;0.40;;;11.40;99.90;;;;;;5069113;28;20404;-77
2022/12/23 02:24:13;;;;;;;0.60;0.40;;;11.40;99.90;;;;;;5068694;28;21025;-76
2022/12/23 02:27:08;;;;;;;0.60;0.30;;;11.50;99.90;;;;;;5069117;28;20773;-77
2022/12/23 02:30:17;;;;;;;0.70;0.40;;;11.50;99.90;;;;;;5068811;28;20407;-77
2022/12/23 02:33:12;;;;;;;0.60;0.30;;;11.50;99.90;;;;;;5051420;28;20426;-77
2022/12/23 02:35:56;;;;;;;0.60;0.30;;;11.40;99.90;;;;;;5050901;28;21288;-77
2022/12/23 02:38:25;;;;;;;0.60;0.30;;;11.50;99.90;;;;;;5068953;28;20550;-77
2022/12/23 02:40:50;;;;;;;1.47;0.50;;;11.50;99.90;;;;;;5050828;28;20423;-77
2022/12/23 02:43:39;;;;;;;0.70;0.33;;;11.50;99.90;;;;;;5050968;28;20439;-77
2022/12/23 02:46:04;;;;;;;0.70;0.40;;;11.50;99.90;;;;;;5069413;28;20182;-77
2022/12/23 02:48:55;;;;;;;0.70;0.30;;;11.50;99.90;;;;;;5069270;28;20421;-77
2022/12/23 02:51:27;;;;;;;2.70;0.30;;;11.50;99.90;;;;;;5069662;28;20183;-77
2022/12/23 02:53:57;;;;;;;3.63;2.10;;;11.50;99.90;;;;;;5051632;28;20436;-78
2022/12/23 02:56:26;;;;;;;0.60;0.30;;;11.40;99.90;;;;;;5069277;28;20420;-77
2022/12/23 02:59:09;;;;;;;1.43;0.30;;;11.50;99.90;;;;;;5068677;28;20482;-77
2022/12/23 03:01:36;;;;;;;0.60;0.40;;;11.40;99.90;;;;;;5050956;28;20417;-77
2022/12/23 03:04:01;;;;;;;1.53;0.40;;;11.30;99.90;;;;;;5069072;28;20477;-77
2022/12/23 03:06:33;;;;;;;0.60;0.40;;;11.40;99.90;;;;;;5050998;28;20419;-77
2022/12/23 03:08:59;;;;;;;2.40;0.50;;;11.40;99.90;;;;;;5068546;28;20172;-76
2022/12/23 03:12:03;;;;;;;0.60;0.40;;;11.40;99.90;;;;;;5068522;28;20915;-77
2022/12/23 03:15:12;;;;;;;1.87;0.40;;;11.40;99.90;;;;;;5048677;28;20994;-78
2022/12/23 03:17:56;;;;;;;0.77;0.33;;;11.50;99.90;;;;;;5072387;28;21035;-77
2022/12/23 03:20:51;;;;;;;0.60;0.40;;;11.50;99.90;;;;;;5072163;28;20922;-76
2022/12/23 03:23:21;;;;;;;0.70;0.40;;;11.50;99.90;;;;;;4999731;28;20450;-76
2022/12/23 03:26:08;;;;;;;0.60;0.40;;;11.40;99.90;;;;;;5072030;28;20442;-77
2022/12/23 03:28:39;;;;;;;0.80;0.40;;;11.30;99.90;;;;;;5072340;28;20452;-77
2022/12/23 03:31:09;;;;;;;1.00;0.40;;;11.40;99.90;;;;;;5072026;28;20409;-78
2022/12/23 03:33:39;;;;;;;1.00;1.00;;;11.30;99.90;;;;;;5072314;28;20989;-78
2022/12/23 03:36:22;;;;;;;0.70;0.40;;;11.30;99.90;;;;;;5072542;28;20432;-76
2022/12/23 03:38:50;;;;;;;2.83;0.40;;;11.30;99.90;;;;;;5054195;28;20457;-76
2022/12/23 03:41:20;;;;;;;1.63;0.40;;;11.40;99.90;;;;;;5038062;28;20977;-77
2022/12/23 03:43:55;;;;;;;0.70;0.40;;;11.30;99.90;;;;;;5072716;28;20512;-78
2022/12/23 03:46:29;;;;;;;0.77;0.40;;;11.30;99.90;;;;;;5072858;28;20415;-77
2022/12/23 03:49:00;;;;;;;0.60;0.40;;;11.30;99.90;;;;;;5054788;28;20854;-78
2022/12/23 03:51:33;;;;;;;2.13;0.50;;;11.20;99.90;;;;;;5039063;28;20500;-77
2022/12/23 03:54:02;;;;;;;1.20;0.37;;;11.20;99.90;;;;;;5073695;28;20432;-77
2022/12/23 03:56:31;;;;;;;0.70;0.40;;;11.20;99.90;;;;;;5074015;28;20420;-77
2022/12/23 03:59:00;;;;;;;4.17;0.67;;;11.20;99.90;;;;;;5055447;28;20534;-77
2022/12/23 04:01:53;;;;;;;1.00;0.40;;;11.30;99.90;;;;;;5055581;28;20505;-77
2022/12/23 04:04:56;;;;;;;2.70;0.40;;;11.30;99.90;;;;;;5072887;28;20943;-79
2022/12/23 04:07:46;;;;;;;0.70;0.40;;;11.20;99.90;;;;;;4988765;28;20488;-78
2022/12/23 04:10:13;;;;;;;0.80;0.40;;;11.20;99.90;;;;;;5054007;28;20425;-78
2022/12/23 04:12:39;;;;;;;0.60;0.40;;;11.30;99.90;;;;;;5072237;28;20432;-77
2022/12/23 04:15:05;;;;;;;0.70;0.40;;;11.30;99.90;;;;;;5054159;28;21020;-78
2022/12/23 04:17:31;;;;;;;0.70;0.40;;;11.40;99.90;;;;;;5071991;28;20464;-79
2022/12/23 04:19:57;;;;;;;0.60;0.40;;;11.30;99.90;;;;;;5053839;28;20412;-78
2022/12/23 04:22:23;;;;;;;1.20;0.40;;;11.40;99.90;;;;;;5071855;28;20795;-78
2022/12/23 04:24:48;;;;;;;0.80;0.40;;;11.40;99.90;;;;;;5036830;28;20181;-78
2022/12/23 04:27:15;;;;;;;0.60;0.40;;;11.40;99.90;;;;;;5019161;28;20211;-78
2022/12/23 04:29:42;;;;;;;0.80;0.50;;;11.40;99.90;;;;;;5053087;28;20283;-78
2022/12/23 04:32:08;;;;;;;0.70;0.50;;;11.40;99.90;;;;;;5053416;28;20576;-77
2022/12/23 04:34:34;;;;;;;0.60;0.40;;;11.50;99.90;;;;;;5071259;28;20921;-77
2022/12/23 04:37:00;;;;;;;0.60;0.30;;;11.50;99.90;;;;;;5053214;28;20554;-77
2022/12/23 04:39:26;;;;;;;0.60;0.30;;;11.40;99.90;;;;;;5053456;28;20423;-77
2022/12/23 04:41:51;;;;;;;0.70;0.30;;;11.60;99.90;;;;;;5071792;28;20185;-77
2022/12/23 04:44:17;;;;;;;0.60;0.40;;;11.40;99.90;;;;;;5071535;28;20269;-77
2022/12/23 04:46:42;;;;;;;0.80;0.40;;;11.60;99.90;;;;;;5071737;28;20183;-78
2022/12/23 04:49:08;;;;;;;0.60;0.30;;;11.40;99.90;;;;;;5072291;28;20183;-76
2022/12/23 04:51:34;;;;;;;2.20;0.40;;;11.40;99.90;;;;;;5053373;28;20180;-77
2022/12/23 04:53:59;;;;;;;1.97;0.40;;;11.40;99.90;;;;;;5071225;28;20992;-77
2022/12/23 04:56:25;;;;;;;0.70;0.40;;;11.40;99.90;;;;;;5053477;28;20185;-78
2022/12/23 04:58:51;;;;;;;0.70;0.30;;;11.50;99.90;;;;;;5054094;28;20268;-77
2022/12/23 05:01:16;;;;;;;0.60;0.30;;;11.50;99.90;;;;;;5053623;28;20660;-78
2022/12/23 05:03:42;;;;;;;0.90;0.30;;;11.50;99.90;;;;;;5071025;28;20471;-78
2022/12/23 05:06:08;;;;;;;0.60;0.30;;;11.40;99.90;;;;;;5070942;28;20209;-78
2022/12/23 05:08:34;;;;;;;0.90;0.37;;;11.50;99.90;;;;;;5053254;28;20934;-77
2022/12/23 05:10:59;;;;;;;2.80;0.33;;;11.50;99.90;;;;;;5072521;28;20177;-77
2022/12/23 05:13:25;;;;;;;0.80;0.37;;;11.50;99.90;;;;;;5072326;28;21210;-77
2022/12/23 05:15:52;;;;;;;0.60;0.30;;;11.60;99.90;;;;;;5071562;28;20663;-78
2022/12/23 05:18:19;;;;;;;0.70;0.40;;;11.60;99.90;;;;;;5071972;28;20216;-76
2022/12/23 05:20:44;;;;;;;0.60;0.30;;;11.60;99.90;;;;;;5072513;28;20897;-76
2022/12/23 05:23:10;;;;;;;1.03;0.40;;;11.70;99.90;;;;;;5052880;28;20526;-77
2022/12/23 05:25:37;;;;;;;0.87;0.37;;;11.70;99.90;;;;;;5054041;28;20423;-77
2022/12/23 05:28:05;;;;;;;0.80;0.40;;;11.70;99.90;;;;;;5073966;28;20285;-77
2022/12/23 05:30:30;;;;;;;0.60;0.40;;;11.70;99.90;;;;;;5056164;28;20455;-78
2022/12/23 05:32:56;;;;;;;0.70;0.40;;;11.70;99.90;;;;;;5074287;28;20447;-77
2022/12/23 05:35:23;;;;;;;0.60;0.40;;;11.70;99.90;;;;;;5074031;28;20185;-77
2022/12/23 05:37:49;;;;;;;0.70;0.50;;;11.90;99.90;;;;;;5054582;28;20212;-77
2022/12/23 05:40:15;;;;;;;0.70;0.40;;;11.60;99.90;;;;;;5071545;28;20908;-76
2022/12/23 05:42:41;;;;;;;0.60;0.30;;;11.70;99.90;;;;;;5071773;28;20491;-77
2022/12/23 05:45:07;;;;;;;1.00;0.60;;;11.70;99.90;;;;;;5072114;28;20196;-78
2022/12/23 05:47:33;;;;;;;1.63;0.40;;;11.70;99.90;;;;;;5053003;28;20184;-77
2022/12/23 05:49:58;;;;;;;0.60;0.40;;;11.60;99.90;;;;;;5053809;28;20435;-77
2022/12/23 05:52:24;;;;;;;0.60;0.37;;;11.70;99.90;;;;;;5051967;28;20563;-76
2022/12/23 05:54:49;;;;;;;0.70;0.40;;;11.50;99.90;;;;;;5035543;28;20188;-78
2022/12/23 05:57:15;;;;;;;0.80;0.40;;;11.60;99.90;;;;;;5070236;28;20296;-77
2022/12/23 05:59:40;;;;;;;0.60;0.33;;;11.70;99.90;;;;;;5051715;28;20184;-78
2022/12/23 06:02:06;;;;;;;0.60;0.37;;;11.70;99.90;;;;;;5070808;28;20195;-77
2022/12/23 06:04:32;;;;;;;4.60;0.40;;;11.70;99.90;;;;;;5054265;28;20685;-77
2022/12/23 06:06:57;;;;;;;0.90;0.50;;;11.70;99.90;;;;;;5056204;28;20195;-77
2022/12/23 06:09:23;;;;;;;0.70;0.40;;;11.70;99.90;;;;;;5053983;28;20661;-76
2022/12/23 06:11:49;;;;;;;2.30;0.50;;;11.70;99.90;;;;;;5053412;28;20192;-77
2022/12/23 06:14:14;;;;;;;0.70;0.40;;;11.70;99.90;;;;;;5072120;28;20201;-77
2022/12/23 06:16:40;;;;;;;0.80;0.40;;;11.70;99.90;;;;;;5053621;28;20268;-77
2022/12/23 06:19:05;;;;;;;0.60;0.33;;;11.70;99.90;;;;;;5053266;28;20207;-77
2022/12/23 06:21:31;;;;;;;1.00;0.40;;;11.70;99.90;;;;;;5052439;28;20255;-76
2022/12/23 06:23:57;;;;;;;0.70;0.40;;;11.70;99.90;;;;;;5070492;28;20212;-77
2022/12/23 06:26:23;;;;;;;0.70;0.43;;;11.80;99.90;;;;;;5070655;28;20203;-77
2022/12/23 06:28:48;;;;;;;1.13;0.40;;;11.80;99.90;;;;;;5070508;28;20546;-77
2022/12/23 06:31:14;;;;;;;0.70;0.40;;;11.70;99.90;;;;;;5070038;28;20610;-77
2022/12/23 06:33:40;;;;;;;2.40;0.40;;;11.70;99.90;;;;;;5068867;28;20211;-77
2022/12/23 06:36:06;;;;;;;1.00;0.40;;;11.70;99.90;;;;;;5051171;28;20295;-77
2022/12/23 06:38:32;;;;;;;2.70;0.40;;;11.70;99.90;;;;;;5068884;28;20791;-77
2022/12/23 06:40:57;;;;;;;0.70;0.40;;;11.70;99.90;;;;;;5069462;28;20527;-77
2022/12/23 06:43:23;;;;;;;0.70;0.40;;;11.70;99.90;;;;;;5069608;28;20232;-76
2022/12/23 06:45:49;;;;;;;0.70;0.40;;;11.70;99.90;;;;;;5069205;28;20178;-76
2022/12/23 06:48:16;;;;;;;0.70;0.47;;;11.70;99.90;;;;;;5034827;28;20223;-77
2022/12/23 06:50:42;;;;;;;0.60;0.30;;;11.70;99.90;;;;;;5021981;28;20189;-77
2022/12/23 06:53:08;;;;;;;0.60;0.40;;;11.80;99.90;;;;;;5072958;28;20439;-77
2022/12/23 06:55:33;;;;;;;0.60;0.30;;;11.70;99.90;;;;;;5072733;28;20429;-77
2022/12/23 06:57:59;;;;;;;0.70;0.40;;;11.90;99.90;;;;;;5054885;28;20474;-77
2022/12/23 07:00:24;;;;;;;0.60;0.40;;;11.70;99.90;;;;;;5054512;28;20188;-76
2022/12/23 07:02:52;;;;;;;0.60;0.30;;;11.80;99.90;;;;;;5073632;28;20211;-76
2022/12/23 07:05:18;;;;;;;0.70;0.40;;;11.70;99.90;;;;;;5073354;28;20203;-77
2022/12/23 07:07:43;;;;;;;0.80;0.40;;;11.70;99.90;;;;;;5055439;28;20421;-77
2022/12/23 07:10:09;;;;;;;0.70;0.40;;;11.70;99.90;;;;;;5054951;28;20200;-77
2022/12/23 07:12:35;;;;;;;0.60;0.30;;;11.90;99.90;;;;;;5053334;28;20232;-77
2022/12/23 07:15:01;;;;;;;0.70;0.40;;;11.80;99.90;;;;;;5072018;28;20187;-77
2022/12/23 07:17:27;;;;;;;0.60;0.30;;;11.80;99.90;;;;;;5053347;28;20687;-77
2022/12/23 07:19:52;;;;;;;0.73;0.43;;;11.80;99.90;;;;;;5053554;28;20269;-76
2022/12/23 07:22:19;;;;;;;0.70;0.40;;;11.80;99.90;;;;;;5053208;28;20862;-76
2022/12/23 07:24:44;;;;;;;0.60;0.30;;;11.90;99.90;;;;;;5071319;28;20185;-77
2022/12/23 07:27:10;;;;;;;0.60;0.40;;;11.80;99.90;;;;;;5071160;28;20849;-76
2022/12/23 07:29:35;;;;;;;0.67;0.43;;;11.90;99.90;;;;;;5036859;28;20288;-76
2022/12/23 07:32:01;;;;;;;0.70;0.40;;;11.90;99.90;;;;;;5053428;28;20267;-77
2022/12/23 07:34:27;;;;;;;0.60;0.40;;;11.90;99.90;;;;;;5053155;28;20299;-77
2022/12/23 07:36:53;;;;;;;0.80;0.40;;;11.90;99.90;;;;;;5071069;28;20491;-76
2022/12/23 07:39:19;;;;;;;0.63;0.30;;;11.90;99.90;;;;;;5071292;28;20183;-77
2022/12/23 07:41:45;;;;;;;0.90;0.40;;;11.90;99.90;;;;;;5053199;28;20843;-76
2022/12/23 07:44:10;;;;;;;0.80;0.40;;;11.90;99.90;;;;;;5053252;28;20568;-77
2022/12/23 07:46:37;;;;;;;0.70;0.40;;;12.00;99.90;;;;;;5071972;28;20234;-77
2022/12/23 07:49:02;;;;;;;0.70;0.43;;;12.10;99.90;;;;;;5073382;28;20181;-77
2022/12/23 07:51:28;;;;;;;0.90;0.40;;;11.90;99.90;;;;;;5073586;28;21116;-77
2022/12/23 07:53:54;;;;;;;1.37;0.40;;;11.90;99.90;;;;;;5072311;28;20205;-77
2022/12/23 07:56:20;;;;;;;0.60;0.40;;;11.90;99.90;;;;;;5072686;28;20443;-76
2022/12/23 07:58:49;;;;;;;0.60;0.40;;;11.90;99.90;;;;;;5070754;28;20221;-77
2022/12/23 08:01:16;;;;;;;0.60;0.40;;;12.00;99.90;;;;;;5052025;28;20671;-77
2022/12/23 08:03:41;;;;;;;0.70;0.40;;;11.90;99.90;;;;;;5070826;28;20443;-76
2022/12/23 08:06:11;;;;;;;0.90;0.40;;;11.90;99.90;;;;;;5070383;28;20775;-76
2022/12/23 08:08:37;;;;;;;0.70;0.40;;;11.90;99.90;;;;;;5070935;28;20811;-77
2022/12/23 08:11:05;;;;;;;1.57;0.40;;;11.90;99.90;;;;;;5070386;28;20421;-76
2022/12/23 08:13:34;;;;;;;1.67;0.53;;;11.90;99.90;;;;;;5054847;28;20474;-77
2022/12/23 08:16:01;;;;;;;0.70;0.60;;;11.90;99.90;;;;;;5073039;28;20424;-76
2022/12/23 08:18:29;;;;;;;0.80;0.50;;;11.90;99.90;;;;;;5071768;28;20489;-77
2022/12/23 08:21:00;;;;;;;0.70;0.40;;;11.70;99.90;;;;;;5071403;28;20415;-77
2022/12/23 08:23:27;;;;;;;0.83;0.50;;;11.90;99.90;;;;;;5054199;28;20556;-77
2022/12/23 08:26:08;;;;;;;1.77;0.63;;;11.80;99.90;;;;;;5072072;28;20927;-76
2022/12/23 08:28:36;;;;;;;0.70;0.50;;;11.90;99.90;;;;;;5071052;28;20411;-77
2022/12/23 08:31:10;;;;;;;0.80;0.57;;;11.90;99.90;;;;;;5070655;28;20525;-77
2022/12/23 08:33:38;;;;;;;0.87;0.63;;;11.90;99.90;;;;;;5070227;28;20469;-76
2022/12/23 08:36:06;;;;;;;0.70;0.40;;;11.90;99.90;;;;;;5052397;28;20564;-77
2022/12/23 08:38:33;;;;;;;0.70;0.50;;;11.90;99.90;;;;;;5070442;28;20626;-75
2022/12/23 08:40:58;;;;;;;0.70;0.40;;;11.90;99.90;;;;;;5070059;28;20738;-77
2022/12/23 08:43:24;;;;;;;0.70;0.40;;;11.90;99.90;;;;;;5053134;28;20438;-78
2022/12/23 08:45:50;;;;;;;0.93;0.50;;;11.90;99.90;;;;;;5053959;28;20549;-76
2022/12/23 08:48:16;;;;;;;0.87;0.40;;;11.90;99.90;;;;;;5071964;28;20189;-77
2022/12/23 08:50:43;;;;;;;0.70;0.40;;;11.90;99.90;;;;;;5072580;28;20928;-77
2022/12/23 08:53:10;;;;;;;0.70;0.50;;;11.90;99.90;;;;;;5053298;28;20197;-77
2022/12/23 08:55:54;;;;;;;0.80;0.50;;;11.90;99.90;;;;;;5072003;28;20865;-77
2022/12/23 08:58:19;;;;;;;0.70;0.40;;;11.90;99.90;;;;;;5053547;28;20978;-77
2022/12/23 09:00:45;;;;;;;0.70;0.40;;;11.90;99.90;;;;;;5070706;28;20423;-77
2022/12/23 09:03:11;;;;;;;0.70;0.40;;;11.90;99.90;;;;;;5069714;28;20291;-78
2022/12/23 09:05:40;;;;;;;0.70;0.40;;;12.00;99.90;;;;;;5052579;28;20185;-78
2022/12/23 09:08:07;;;;;;;1.83;0.40;;;11.90;99.90;;;;;;5053596;28;20189;-75
2022/12/23 09:10:34;;;;;;;0.70;0.40;;;11.80;99.90;;;;;;5071082;28;21077;-76
2022/12/23 09:12:59;;;;;;;0.80;0.40;;;11.90;99.90;;;;;;5069725;28;20494;-77
2022/12/23 09:15:25;;;;;;;0.70;0.50;;;11.80;99.90;;;;;;5053012;28;20443;-77
2022/12/23 09:17:51;;;;;;;1.03;0.60;;;11.90;99.90;;;;;;5034908;28;20222;-77
2022/12/23 09:20:16;;;;;;;0.70;0.40;;;11.90;99.90;;;;;;5070870;28;20432;-77
2022/12/23 09:22:42;;;;;;;2.63;0.40;;;11.70;99.90;;;;;;5071142;28;20200;-75
2022/12/23 09:25:08;;;;;;;1.00;0.50;;;11.70;99.90;;;;;;5069928;28;20206;-76
2022/12/23 09:27:33;;;;;;;1.07;0.47;;;11.70;99.90;;;;;;5053271;28;20205;-77
2022/12/23 09:29:59;;;;;;;2.20;0.40;;;11.90;99.90;;;;;;5052854;28;20188;-76
2022/12/23 09:32:24;;;;;;;0.67;0.33;;;11.70;99.90;;;;;;5069238;28;20197;-77
2022/12/23 09:34:50;;;;;;;0.70;0.40;;;11.60;99.90;;;;;;5034938;28;20198;-76
2022/12/23 09:37:16;;;;;;;2.30;0.30;;;11.70;99.90;;;;;;5051599;28;20211;-77
2022/12/23 09:39:42;;;;;;;0.60;0.40;;;11.70;99.90;;;;;;5051779;28;20185;-76
2022/12/23 09:42:22;;;;;;;0.80;0.50;;;11.70;99.90;;;;;;5070191;28;20196;-76
2022/12/23 09:45:05;;;;;;;0.70;0.40;;;11.70;99.90;;;;;;5052964;28;20423;-77
2022/12/23 09:47:33;;;;;;;2.30;0.40;;;11.70;99.90;;;;;;5070903;28;20840;-76
2022/12/23 09:50:03;;;;;;;0.93;0.40;;;11.70;99.90;;;;;;5071315;28;20804;-77
2022/12/23 09:53:15;;;;;;;0.70;0.40;;;11.60;99.90;;;;;;5071381;28;20461;-77
2022/12/23 09:56:01;;;;;;;0.80;0.40;;;11.60;99.90;;;;;;5048580;28;20438;-77
2022/12/23 09:58:30;;;;;;;0.70;0.40;;;11.60;99.90;;;;;;5069086;28;20480;-76
2022/12/23 10:01:16;;;;;;;0.70;0.40;;;11.60;99.90;;;;;;5069452;28;20434;-77
2022/12/23 10:04:17;;;;;;;1.67;0.40;;;11.60;99.90;;;;;;5010456;28;20910;-76
2022/12/23 10:06:46;;;;;;;1.00;0.80;;;11.70;99.90;;;;;;5070145;28;20428;-76
2022/12/23 10:09:15;;;;;;;1.20;0.87;;;11.70;99.90;;;;;;5051907;28;20415;-77
2022/12/23 10:11:45;;;;;;;1.40;1.30;;;11.80;99.90;;;;;;5069550;28;20975;-76
2022/12/23 10:14:18;;;;;;;1.30;0.67;;;11.70;99.90;;;;;;5069694;28;20521;-75
2022/12/23 10:16:48;;;;;;;0.80;0.50;;;11.70;99.90;;;;;;5070594;28;21089;-78
2022/12/23 10:19:32;;;;;;;0.90;0.57;;;11.80;99.90;;;;;;5051555;28;20854;-77
2022/12/23 10:22:05;;;;;;;2.13;0.60;;;11.80;99.90;;;;;;5053484;28;20408;-76
2022/12/23 10:24:40;;;;;;;1.10;0.50;;;11.90;99.90;;;;;;5034576;28;20557;-77
2022/12/23 10:27:40;;;;;;;0.70;0.50;;;11.90;99.90;;;;;;5069315;28;20575;-77
2022/12/23 10:30:17;;;;;;;4.00;0.90;;;12.00;99.90;;;;;;5069184;28;20424;-77
2022/12/23 10:33:15;;;;;;;2.53;1.10;;;12.00;99.90;;;;;;5069071;28;21125;-77
2022/12/23 10:36:01;;;;;;;0.80;0.60;;;12.10;99.90;;;;;;5069247;28;20417;-76
2022/12/23 10:39:00;;;;;;;0.77;0.60;;;12.10;99.90;;;;;;5068592;28;20493;-78
2022/12/23 10:41:34;;;;;;;0.80;0.53;;;12.20;99.90;;;;;;5071935;28;20436;-79
2022/12/23 10:44:02;;;;;;;2.03;0.50;;;12.30;99.90;;;;;;5069226;28;20960;-77
2022/12/23 10:46:58;;;;;;;0.80;0.60;;;12.40;99.90;;;;;;5051505;28;20472;-76
2022/12/23 10:49:46;;;;;;;1.00;0.90;;;12.40;99.90;;;;;;5050941;28;20444;-76
2022/12/23 10:52:17;;;;;;;0.90;0.80;;;12.50;99.90;;;;;;5051702;28;20796;-77
2022/12/23 10:54:45;;;;;;;0.90;0.40;;;12.60;99.90;;;;;;5071133;28;20502;-76
2022/12/23 10:57:14;;;;;;;0.70;0.50;;;12.60;99.90;;;;;;5070183;28;20919;-77
2022/12/23 10:59:40;;;;;;;1.60;0.60;;;12.60;99.90;;;;;;5050116;28;20443;-77
2022/12/23 11:02:40;;;;;;;1.53;0.50;;;12.60;99.90;;;;;;5068096;28;20416;-77
2022/12/23 11:05:27;;;;;;;1.57;0.50;;;12.70;99.90;;;;;;5049791;28;20600;-76
2022/12/23 11:07:54;;;;;;;2.07;0.50;;;12.70;99.90;;;;;;5070482;28;20514;-77
2022/12/23 11:10:24;;;;;;;1.23;0.60;;;12.80;99.90;;;;;;5070877;28;20911;-77
2022/12/23 11:12:52;;;;;;;1.47;0.70;;;12.70;99.90;;;;;;5071621;28;20444;-77
2022/12/23 11:15:28;;;;;;;0.70;0.50;;;12.80;99.90;;;;;;5071805;28;21281;-77
2022/12/23 11:18:03;;;;;;;0.70;0.50;;;12.80;99.90;;;;;;5071619;28;20499;-77
2022/12/23 11:20:30;;;;;;;0.70;0.47;;;12.90;99.90;;;;;;5070878;28;20484;-77
2022/12/23 11:23:00;;;;;;;1.30;0.50;;;13.00;99.90;;;;;;5052473;28;20439;-77
2022/12/23 11:25:41;;;;;;;1.00;0.60;;;12.90;99.90;;;;;;5070782;28;20492;-77
2022/12/23 11:28:06;;;;;;;0.70;0.50;;;12.90;99.90;;;;;;5052932;28;20869;-77
2022/12/23 11:30:46;;;;;;;1.10;0.50;;;12.90;99.90;;;;;;5051975;28;20421;-77
2022/12/23 11:33:27;;;;;;;0.97;0.60;;;12.90;99.90;;;;;;5068890;28;20214;-76
2022/12/23 11:36:13;;;;;;;1.10;0.87;;;12.90;99.90;;;;;;5052080;28;20532;-77
2022/12/23 11:39:02;;;;;;;1.27;0.70;;;12.90;99.90;;;;;;5071567;28;20602;-77
2022/12/23 11:41:33;;;;;;;0.80;0.60;;;12.90;99.90;;;;;;5071409;28;20429;-75
2022/12/23 11:44:03;;;;;;;1.00;0.70;;;12.90;99.90;;;;;;5071277;28;20471;-76
2022/12/23 11:46:31;;;;;;;0.80;0.50;;;13.00;99.90;;;;;;5053266;28;20453;-76
2022/12/23 11:49:19;;;;;;;1.33;1.23;;;12.90;99.90;;;;;;5052503;28;20435;-75
2022/12/23 11:52:01;;;;;;;1.10;0.87;;;12.90;99.90;;;;;;5054743;28;20560;-77
2022/12/23 11:54:28;;;;;;;1.60;0.60;;;12.80;99.90;;;;;;5075525;28;20443;-77
2022/12/23 11:56:54;;;;;;;1.03;0.53;;;12.80;99.90;;;;;;5071970;28;20418;-76
2022/12/23 11:59:38;;;;;;;1.63;0.80;;;12.80;99.90;;;;;;5053195;28;20462;-76
2022/12/23 12:02:14;;;;;;;1.00;0.60;;;12.90;99.90;;;;;;5071942;28;20418;-77
2022/12/23 12:04:41;;;;;;;0.87;0.60;;;12.80;99.90;;;;;;5054028;28;20464;-76
2022/12/23 12:07:12;;;;;;;1.40;0.70;;;12.80;99.90;;;;;;5073889;28;20424;-77
2022/12/23 12:09:41;;;;;;;5.07;1.10;;;12.80;99.90;;;;;;5073054;28;20411;-76
2022/12/23 12:12:14;;;;;;;2.70;0.80;;;12.70;99.90;;;;;;5071370;28;20419;-77
2022/12/23 12:14:53;;;;;;;1.00;0.80;;;12.70;99.90;;;;;;5070859;28;20460;-77
2022/12/23 12:17:34;;;;;;;2.10;1.43;;;12.70;99.90;;;;;;5052506;28;20968;-77
2022/12/23 12:20:15;;;;;;;1.00;0.60;;;12.70;99.90;;;;;;5070678;28;20462;-77
2022/12/23 12:22:48;;;;;;;2.17;0.90;;;12.70;99.90;;;;;;5071200;28;20466;-77
2022/12/23 12:25:18;;;;;;;2.07;0.77;;;12.80;99.90;;;;;;5052644;28;20836;-77
2022/12/23 12:27:55;;;;;;;1.50;0.97;;;12.80;99.90;;;;;;5051138;28;20514;-77
2022/12/23 12:30:21;;;;;;;1.00;0.90;;;12.70;99.90;;;;;;5051187;28;20454;-77
2022/12/23 12:33:04;;;;;;;1.30;0.93;;;12.60;99.90;;;;;;5071538;28;20450;-78
2022/12/23 12:35:48;;;;;;;2.30;0.90;;;12.60;99.90;;;;;;5071631;28;20564;-77
2022/12/23 12:38:25;;;;;;;1.00;0.70;;;12.50;99.90;;;;;;5069194;28;20507;-77
2022/12/23 12:41:07;;;;;;;0.80;0.70;;;12.60;99.90;;;;;;5069379;28;20742;-76
2022/12/23 12:44:02;;;;;;;1.00;0.70;;;12.50;99.90;;;;;;5050998;28;20440;-77
2022/12/23 12:46:43;;;;;;;0.93;0.83;;;12.60;99.90;;;;;;5059262;28;20539;-76
2022/12/23 12:49:18;;;;;;;0.90;0.70;;;12.60;99.90;;;;;;5070579;28;21220;-77
2022/12/23 12:52:15;;;;;;;1.87;1.17;;;12.70;99.90;;;;;;5071785;28;20418;-78
2022/12/23 12:54:44;;;;;;;1.10;0.77;;;12.60;99.90;;;;;;5071875;28;20531;-77
2022/12/23 12:57:15;;;;;;;2.13;0.60;;;12.60;99.90;;;;;;5053500;28;20458;-78
2022/12/23 12:59:42;;;;;;;3.40;1.17;;;12.60;99.90;;;;;;5072707;28;20941;-77
2022/12/23 13:02:32;;;;;;;1.30;1.00;;;12.70;99.90;;;;;;5053647;28;20428;-77
2022/12/23 13:05:27;;;;;;;1.00;0.70;;;12.70;99.90;;;;;;5052720;28;20452;-75
2022/12/23 13:07:56;;;;;;;1.50;0.90;;;12.70;99.90;;;;;;5060995;28;20891;-76
2022/12/23 13:10:52;;;;;;;1.00;0.60;;;12.70;99.90;;;;;;5070464;28;20423;-77
2022/12/23 13:13:29;;;;;;;1.60;1.10;;;12.70;99.90;;;;;;5070655;28;20445;-77
2022/12/23 13:16:23;;;;;;;3.23;0.80;;;12.70;99.90;;;;;;5051556;28;20570;-76
2022/12/23 13:19:20;;;;;;;3.17;0.67;;;12.70;99.90;;;;;;5070095;28;20460;-76
2022/12/23 13:21:53;;;;;;;1.27;0.60;;;12.80;99.90;;;;;;5028578;28;20431;-76
2022/12/23 13:24:25;;;;;;;1.13;1.03;;;12.80;99.90;;;;;;5070780;28;20957;-75
2022/12/23 13:27:12;;;;;;;1.23;0.70;;;12.80;99.90;;;;;;5051726;28;20449;-77
2022/12/23 13:30:16;;;;;;;1.10;0.60;;;12.80;99.90;;;;;;5070305;28;20434;-76
2022/12/23 13:33:19;;;;;;;0.93;0.83;;;12.90;99.90;;;;;;5070220;28;20517;-76
2022/12/23 13:36:06;;;;;;;2.53;1.10;;;12.80;99.90;;;;;;5070365;28;20419;-76